Time;durP1;ratioP1;P1;durP2;ratioP2;P2;SDS_P1;SDS_P2;PMS_P1;PMS_P2;Temp;Humidity;BMP_temperature;BMP_pressure;BME280_temperature;BME280_humidity;BME280_pressure;Samples;Min_cycle;Max_cycle;Signal;HPM_P1;HPM_P2
2021/04/12 02:47:43;;;;;;;0.60;0.60;;;10.20;99.90;;;;;;4944886;23;94443;-84
2021/04/12 02:50:46;;;;;;;2.15;2.05;;;9.90;99.90;;;;;;4800223;29;91931;-84
2021/04/12 02:53:39;;;;;;;1.90;1.88;;;9.60;99.90;;;;;;4816661;29;92026;-84
2021/04/12 02:56:29;;;;;;;1.25;1.15;;;9.80;99.90;;;;;;4813081;29;95164;-84
2021/04/12 02:59:03;;;;;;;3.88;3.67;;;9.30;99.90;;;;;;4835783;29;92127;-84
2021/04/12 03:02:06;;;;;;;0.80;0.80;;;9.50;99.90;;;;;;4836123;29;91238;-83
2021/04/12 03:04:50;;;;;;;1.70;1.70;;;9.70;99.90;;;;;;4834802;29;93149;-84
2021/04/12 03:07:30;;;;;;;1.80;1.80;;;9.60;99.90;;;;;;4836256;29;92651;-85
2021/04/12 03:10:25;;;;;;;1.80;1.80;;;8.80;99.90;;;;;;4835935;29;91955;-84
2021/04/12 03:13:26;;;;;;;0.65;0.65;;;9.20;99.90;;;;;;4832868;29;91270;-83
2021/04/12 03:16:13;;;;;;;1.83;1.83;;;8.40;99.90;;;;;;4802469;29;92747;-82
2021/04/12 03:19:02;;;;;;;2.10;2.00;;;8.90;99.90;;;;;;4849170;29;92102;-81
2021/04/12 03:22:06;;;;;;;0.60;0.60;;;8.80;99.90;;;;;;4857864;29;91875;-83
2021/04/12 03:25:22;;;;;;;3.00;2.05;;;8.60;99.90;;;;;;4822469;29;91905;-82
2021/04/12 03:28:10;;;;;;;1.88;1.80;;;9.10;99.90;;;;;;4803296;29;91758;-82
2021/04/12 03:31:18;;;;;;;1.90;1.90;;;8.60;99.90;;;;;;4831826;29;95851;-82
2021/04/12 03:34:17;;;;;;;0.60;0.60;;;8.60;99.90;;;;;;4762248;29;92207;-83
2021/04/12 03:37:10;;;;;;;2.08;1.92;;;8.50;99.90;;;;;;4763272;29;90901;-84
2021/04/12 03:39:45;;;;;;;0.80;0.80;;;8.50;99.90;;;;;;4821632;29;92220;-82
2021/04/12 03:42:52;;;;;;;1.85;1.85;;;7.80;99.90;;;;;;4837826;29;92185;-82
2021/04/12 03:45:32;;;;;;;2.20;2.10;;;8.50;99.90;;;;;;4832085;29;92472;-86
2021/04/12 03:48:23;;;;;;;1.67;0.80;;;8.10;99.90;;;;;;4838766;29;91949;-84
2021/04/12 03:51:25;;;;;;;2.00;1.90;;;8.00;99.90;;;;;;4818024;29;92107;-81
2021/04/12 03:54:28;;;;;;;0.50;0.50;;;8.00;99.90;;;;;;4824175;29;92147;-82
2021/04/12 03:57:15;;;;;;;1.77;1.77;;;7.60;99.90;;;;;;4834529;29;91950;-83
2021/04/12 04:00:19;;;;;;;0.70;0.70;;;7.60;99.90;;;;;;4833946;29;91916;-83
2021/04/12 04:03:22;;;;;;;1.90;1.90;;;7.70;99.90;;;;;;4810818;29;92378;-84
2021/04/12 04:05:54;;;;;;;1.70;1.60;;;7.50;99.90;;;;;;4806903;29;91404;-84
2021/04/12 04:08:31;;;;;;;2.45;2.30;;;7.50;99.90;;;;;;4830099;29;92125;-84
2021/04/12 04:11:12;;;;;;;0.50;0.50;;;7.20;99.90;;;;;;4832237;29;91943;-84
2021/04/12 04:14:00;;;;;;;1.95;1.85;;;7.20;99.90;;;;;;4831935;29;92484;-84
2021/04/12 04:16:52;;;;;;;1.90;1.80;;;7.00;99.90;;;;;;4828233;29;92010;-84
2021/04/12 04:19:26;;;;;;;1.15;0.73;;;7.10;99.90;;;;;;4824180;29;92164;-83
2021/04/12 04:22:29;;;;;;;1.92;1.73;;;6.90;99.90;;;;;;4830628;29;92137;-82
2021/04/12 04:25:13;;;;;;;1.95;1.80;;;6.90;99.90;;;;;;4831048;29;91664;-83
2021/04/12 04:28:03;;;;;;;0.50;0.50;;;6.90;99.90;;;;;;4814266;29;94760;-83
2021/04/12 04:30:41;;;;;;;1.60;1.60;;;6.50;99.90;;;;;;4833328;29;91958;-83
2021/04/12 04:33:25;;;;;;;4.55;1.80;;;6.60;99.90;;;;;;4832782;29;91210;-83
2021/04/12 04:36:29;;;;;;;0.80;0.80;;;6.50;99.90;;;;;;4831433;29;92039;-83
2021/04/12 04:39:10;;;;;;;1.77;1.77;;;6.30;99.90;;;;;;4828113;29;91712;-82
2021/04/12 04:41:35;;;;;;;1.60;1.60;;;6.60;99.90;;;;;;4824626;29;92910;-83
2021/04/12 04:44:38;;;;;;;2.03;1.60;;;6.60;99.90;;;;;;4822729;29;92070;-83
2021/04/12 04:47:42;;;;;;;1.77;1.70;;;6.10;99.90;;;;;;4844566;29;92139;-83
2021/04/12 04:50:45;;;;;;;0.60;0.60;;;6.30;99.90;;;;;;4829661;29;94328;-83
2021/04/12 04:53:48;;;;;;;2.20;2.00;;;6.20;99.90;;;;;;4848042;29;92867;-85
2021/04/12 04:56:36;;;;;;;0.60;0.60;;;6.00;99.90;;;;;;4761559;29;92143;-82
2021/04/12 04:59:10;;;;;;;2.28;2.17;;;5.90;99.90;;;;;;4840746;29;92593;-83
2021/04/12 05:01:57;;;;;;;0.70;0.70;;;5.80;99.90;;;;;;4841988;29;91993;-83
2021/04/12 05:04:41;;;;;;;2.10;2.00;;;6.00;99.90;;;;;;4849146;29;92134;-82
2021/04/12 05:07:55;;;;;;;0.60;0.60;;;5.70;99.90;;;;;;4846723;29;91973;-84
2021/04/12 05:10:30;;;;;;;0.70;0.70;;;5.70;99.90;;;;;;4771705;29;92375;-83
2021/04/12 05:13:34;;;;;;;1.95;1.85;;;4.90;99.90;;;;;;4772911;29;92326;-84
2021/04/12 05:16:36;;;;;;;1.77;1.77;;;5.70;99.90;;;;;;4833102;29;92554;-84
2021/04/12 05:19:29;;;;;;;0.63;0.63;;;5.60;99.90;;;;;;4844694;29;91873;-84
2021/04/12 05:21:54;;;;;;;0.68;0.68;;;5.60;99.90;;;;;;4844243;29;92144;-85
2021/04/12 05:24:29;;;;;;;1.92;1.92;;;6.20;99.90;;;;;;4852565;29;92105;-83
2021/04/12 05:27:26;;;;;;;2.00;2.00;;;5.50;99.90;;;;;;4845092;29;91975;-83
2021/04/12 05:30:10;;;;;;;0.70;0.70;;;5.60;99.90;;;;;;4848988;29;92229;-85
2021/04/12 05:33:01;;;;;;;1.70;1.63;;;6.00;99.90;;;;;;4848766;29;91973;-84
2021/04/12 05:35:35;;;;;;;1.08;1.05;;;5.70;99.90;;;;;;4845242;29;92708;-85
2021/04/12 05:38:30;;;;;;;0.73;0.73;;;5.80;99.90;;;;;;4843316;29;93131;-85
2021/04/12 05:41:17;;;;;;;1.35;0.80;;;5.70;99.90;;;;;;4849272;29;92387;-84
2021/04/12 05:44:11;;;;;;;1.00;0.90;;;5.70;99.90;;;;;;4847044;29;92090;-85
2021/04/12 05:47:11;;;;;;;1.48;0.90;;;5.70;99.90;;;;;;4800386;29;93212;-83
2021/04/12 05:49:46;;;;;;;1.15;1.00;;;5.60;99.90;;;;;;4846203;29;92438;-83
2021/04/12 05:52:39;;;;;;;1.00;1.00;;;5.60;99.90;;;;;;4847221;29;91944;-83
2021/04/12 05:55:05;;;;;;;2.58;2.47;;;;;;;;;;4844684;29;91338;-84
2021/04/12 05:57:50;;;;;;;2.28;2.17;;;5.80;99.90;;;;;;4849765;29;92335;-84
2021/04/12 06:00:34;;;;;;;1.35;1.25;;;5.80;99.90;;;;;;4856064;29;92016;-84
2021/04/12 06:03:31;;;;;;;2.30;2.20;;;6.00;99.90;;;;;;4845224;29;91758;-84
2021/04/12 06:06:17;;;;;;;1.67;1.10;;;5.80;99.90;;;;;;4860844;29;92967;-84
2021/04/12 06:09:01;;;;;;;1.17;1.00;;;5.70;99.90;;;;;;4852494;29;92881;-85
2021/04/12 06:11:58;;;;;;;2.28;2.17;;;5.90;99.90;;;;;;4869867;29;92406;-85
2021/04/12 06:14:45;;;;;;;2.35;2.25;;;5.50;99.90;;;;;;4854411;29;92074;-84
2021/04/12 06:17:11;;;;;;;2.70;2.50;;;5.60;99.90;;;;;;4856758;29;91596;-85
2021/04/12 06:19:55;;;;;;;2.50;2.40;;;5.80;99.90;;;;;;4852873;29;93378;-85
2021/04/12 06:22:32;;;;;;;2.92;2.30;;;5.30;99.90;;;;;;4862509;29;92135;-84
2021/04/12 06:25:26;;;;;;;2.25;2.10;;;5.80;99.90;;;;;;4853649;29;91211;-84
2021/04/12 06:28:12;;;;;;;1.40;1.30;;;5.60;99.90;;;;;;4858324;29;92006;-84
2021/04/12 06:30:43;;;;;;;2.40;2.30;;;4.70;99.90;;;;;;4851525;29;92071;-85
2021/04/12 06:33:27;;;;;;;;;;;5.60;99.90;;;;;;4862857;29;93406;-85
2021/04/12 06:36:32;;;;;;;1.60;1.40;;;5.60;99.90;;;;;;4863246;29;92154;-85
2021/04/12 06:39:41;;;;;;;1.40;1.27;;;5.60;99.90;;;;;;4812740;29;92139;-84
2021/04/12 06:42:25;;;;;;;2.90;1.33;;;5.70;99.90;;;;;;4865474;29;91766;-85
2021/04/12 06:45:09;;;;;;;1.63;1.52;;;5.60;99.90;;;;;;4843333;29;93468;-84
2021/04/12 06:48:22;;;;;;;1.42;1.20;;;5.50;99.90;;;;;;4851362;29;92013;-84
2021/04/12 06:51:39;;;;;;;2.97;2.78;;;5.90;99.90;;;;;;4855952;29;92062;-84
2021/04/12 06:54:39;;;;;;;1.50;1.40;;;5.40;99.90;;;;;;4815331;29;91270;-85
2021/04/12 06:57:11;;;;;;;2.88;2.67;;;5.40;99.90;;;;;;4853650;29;91923;-85
2021/04/12 06:59:57;;;;;;;1.73;1.50;;;5.30;99.90;;;;;;4863540;29;92083;-84
2021/04/12 07:02:42;;;;;;;3.00;2.80;;;5.50;99.90;;;;;;4861760;29;92881;-84
2021/04/12 07:05:41;;;;;;;1.98;1.40;;;5.40;99.90;;;;;;4853232;29;93873;-84
2021/04/12 07:08:32;;;;;;;1.40;1.30;;;5.30;99.90;;;;;;4851080;29;92124;-84
2021/04/12 07:11:34;;;;;;;2.92;2.60;;;5.50;99.90;;;;;;4835821;29;91735;-84
2021/04/12 07:14:30;;;;;;;1.30;1.20;;;5.50;99.90;;;;;;4844061;29;91684;-83
2021/04/12 07:17:13;;;;;;;1.42;1.20;;;5.70;99.90;;;;;;4849279;29;92062;-84
2021/04/12 07:19:41;;;;;;;2.67;2.58;;;6.50;99.90;;;;;;4855054;29;92378;-83
2021/04/12 07:22:24;;;;;;;1.33;1.23;;;5.90;99.90;;;;;;4851689;29;91154;-84
2021/04/12 07:25:11;;;;;;;2.42;2.25;;;6.20;99.90;;;;;;4860956;29;92031;-84
2021/04/12 07:28:25;;;;;;;1.45;1.35;;;6.30;99.90;;;;;;4862403;29;91756;-84
2021/04/12 07:31:16;;;;;;;1.83;1.27;;;6.40;99.90;;;;;;4813126;29;93231;-84
2021/04/12 07:34:02;;;;;;;1.35;1.25;;;6.40;99.90;;;;;;4853381;29;92065;-84
2021/04/12 07:37:06;;;;;;;2.78;2.67;;;6.50;99.90;;;;;;4863121;29;92021;-84
2021/04/12 07:40:10;;;;;;;1.65;1.40;;;6.40;99.90;;;;;;4840206;29;92698;-84
2021/04/12 07:42:38;;;;;;;2.95;2.78;;;6.90;99.90;;;;;;4850607;29;92064;-84
2021/04/12 07:45:40;;;;;;;3.45;2.65;;;6.20;99.90;;;;;;4827515;29;91940;-84
2021/04/12 07:48:44;;;;;;;3.25;3.05;;;6.50;99.90;;;;;;4850327;29;92123;-84
2021/04/12 07:51:28;;;;;;;1.30;1.20;;;6.70;99.90;;;;;;4842815;29;92585;-82
2021/04/12 07:54:37;;;;;;;3.33;3.13;;;6.80;99.90;;;;;;4846927;29;91951;-84
2021/04/12 07:57:21;;;;;;;1.45;1.20;;;7.00;99.90;;;;;;4848193;29;92055;-81
2021/04/12 07:59:52;;;;;;;2.70;2.60;;;7.30;99.90;;;;;;4844078;29;94043;-86
2021/04/12 08:02:55;;;;;;;1.38;1.27;;;7.20;99.90;;;;;;4846179;29;92370;-83
2021/04/12 08:05:40;;;;;;;1.80;1.50;;;7.30;99.90;;;;;;4854584;29;92315;-84
2021/04/12 08:08:32;;;;;;;1.45;1.30;;;7.40;99.90;;;;;;4843434;29;92095;-84
2021/04/12 08:11:38;;;;;;;1.58;1.40;;;7.30;99.90;;;;;;4855369;29;91938;-84
2021/04/12 08:14:42;;;;;;;1.10;1.10;;;7.30;99.90;;;;;;4847435;29;92690;-84
2021/04/12 08:17:40;;;;;;;1.98;1.60;;;7.10;99.90;;;;;;4851153;29;92890;-85
2021/04/12 08:20:25;;;;;;;1.50;1.40;;;7.10;99.90;;;;;;4837788;29;91273;-84
2021/04/12 08:23:35;;;;;;;1.33;1.25;;;6.90;99.90;;;;;;4849280;29;92331;-85
2021/04/12 08:26:33;;;;;;;2.83;2.63;;;6.90;99.90;;;;;;4853068;29;91973;-84
2021/04/12 08:29:05;;;;;;;1.55;1.45;;;6.80;99.90;;;;;;4854892;29;92941;-85
2021/04/12 08:31:48;;;;;;;1.40;1.30;;;6.90;99.90;;;;;;4856880;29;92152;-84
2021/04/12 08:34:51;;;;;;;1.55;1.42;;;7.00;99.90;;;;;;4850294;29;92037;-84
2021/04/12 08:37:56;;;;;;;3.33;3.13;;;7.10;99.90;;;;;;4850439;29;92722;-84
2021/04/12 08:40:36;;;;;;;3.47;3.28;;;6.90;99.90;;;;;;4845724;29;92938;-84
2021/04/12 08:43:38;;;;;;;2.00;1.80;;;6.90;99.90;;;;;;4851953;29;92011;-84
2021/04/12 08:46:26;;;;;;;3.17;2.30;;;7.00;99.90;;;;;;4867852;29;91123;-84
2021/04/12 08:49:04;;;;;;;2.17;1.98;;;7.10;99.90;;;;;;4865964;29;90902;-85
2021/04/12 08:52:07;;;;;;;2.45;2.00;;;7.20;99.90;;;;;;4862603;29;91577;-83
2021/04/12 08:54:53;;;;;;;1.70;1.60;;;7.10;99.90;;;;;;4850136;29;93917;-82
2021/04/12 08:58:10;;;;;;;1.65;1.55;;;7.20;99.90;;;;;;4852641;29;93044;-84
2021/04/12 09:00:54;;;;;;;2.20;2.00;;;7.10;99.90;;;;;;4821128;29;92621;-84
2021/04/12 09:03:45;;;;;;;1.52;1.42;;;7.10;99.90;;;;;;4858771;29;92156;-84
2021/04/12 09:06:34;;;;;;;1.83;1.73;;;7.10;99.90;;;;;;4848646;29;92079;-84
2021/04/12 09:09:33;;;;;;;2.00;1.73;;;7.20;99.90;;;;;;4853590;29;92108;-85
2021/04/12 09:12:25;;;;;;;1.88;1.58;;;7.50;99.90;;;;;;4849106;29;91808;-85
2021/04/12 09:15:29;;;;;;;1.80;1.70;;;7.50;99.90;;;;;;4855384;29;92234;-86
2021/04/12 09:18:27;;;;;;;2.13;1.60;;;7.60;99.90;;;;;;4856184;29;90734;-84
2021/04/12 09:21:20;;;;;;;1.52;1.42;;;7.60;99.90;;;;;;4789094;29;92209;-84
2021/04/12 09:24:10;;;;;;;3.60;3.40;;;7.10;99.90;;;;;;4848160;29;92506;-84
2021/04/12 09:27:08;;;;;;;3.08;2.90;;;7.70;99.90;;;;;;4845630;29;93086;-84
2021/04/12 09:29:50;;;;;;;2.03;1.70;;;7.60;99.90;;;;;;4842205;29;91676;-85
2021/04/12 09:32:34;;;;;;;3.38;3.08;;;7.60;99.90;;;;;;4853303;29;91958;-84
2021/04/12 09:35:11;;;;;;;1.63;1.52;;;7.70;99.90;;;;;;4839622;29;94584;-84
2021/04/12 09:38:12;;;;;;;2.88;2.67;;;8.30;99.90;;;;;;4850723;29;91910;-85
2021/04/12 09:41:04;;;;;;;;;;;8.00;99.90;;;;;;4862834;29;91275;-83
2021/04/12 09:44:15;;;;;;;1.85;1.65;;;7.90;99.90;;;;;;4845810;29;91343;-84
2021/04/12 09:47:25;;;;;;;1.77;1.55;;;7.50;99.90;;;;;;4841598;29;91547;-85
2021/04/12 09:50:08;;;;;;;1.90;1.80;;;7.50;99.90;;;;;;4852333;29;92504;-85
2021/04/12 09:53:06;;;;;;;2.42;2.00;;;7.60;99.90;;;;;;4853435;29;92120;-85
2021/04/12 09:55:52;;;;;;;1.85;1.75;;;7.90;99.90;;;;;;4849533;29;93029;-84
2021/04/12 09:58:39;;;;;;;3.88;3.58;;;8.00;99.90;;;;;;4849787;29;92101;-84
2021/04/12 10:01:20;;;;;;;1.98;1.70;;;7.80;99.90;;;;;;4848768;29;92132;-84
2021/04/12 10:04:24;;;;;;;3.28;3.08;;;7.30;99.90;;;;;;4847393;29;91987;-84
2021/04/12 10:06:53;;;;;;;2.70;2.22;;;7.70;99.90;;;;;;4847273;29;92243;-84
2021/04/12 10:09:30;;;;;;;3.25;3.05;;;7.80;99.90;;;;;;4851536;29;92817;-84
2021/04/12 10:12:22;;;;;;;3.05;2.85;;;7.60;99.90;;;;;;4842843;29;92997;-85
2021/04/12 10:15:12;;;;;;;;;;;7.90;99.90;;;;;;4841508;29;91379;-85
2021/04/12 10:17:44;;;;;;;2.33;2.00;;;8.10;99.90;;;;;;4842835;29;92213;-86
2021/04/12 10:20:37;;;;;;;2.30;1.80;;;8.10;99.90;;;;;;4840360;29;93435;-87
2021/04/12 10:23:14;;;;;;;3.60;3.33;;;8.10;99.90;;;;;;4839933;29;93328;-89
2021/04/12 10:25:54;;;;;;;2.92;2.38;;;8.10;99.90;;;;;;4841836;29;92167;-88
2021/04/12 10:28:29;;;;;;;1.90;1.80;;;7.90;99.90;;;;;;4842205;29;92083;-88
2021/04/12 10:31:21;;;;;;;2.80;2.60;;;8.10;99.90;;;;;;4841133;29;92443;-88
2021/04/12 10:34:09;;;;;;;2.17;1.98;;;7.90;99.90;;;;;;4839765;29;93770;-85
2021/04/12 10:36:50;;;;;;;3.47;3.25;;;8.00;99.90;;;;;;4840767;29;93758;-86
2021/04/12 10:39:23;;;;;;;3.65;3.40;;;7.80;99.90;;;;;;4838744;29;91968;-88
2021/04/12 10:41:58;;;;;;;3.78;3.50;;;8.00;99.90;;;;;;4838147;29;92659;-87
2021/04/12 10:44:40;;;;;;;3.30;3.10;;;8.00;99.90;;;;;;4844689;29;91816;-89
2021/04/12 10:47:25;;;;;;;2.70;1.90;;;8.00;99.90;;;;;;4844905;29;92514;-84
2021/04/12 10:50:08;;;;;;;3.92;3.63;;;7.60;99.90;;;;;;4828066;29;93344;-86
2021/04/12 10:52:52;;;;;;;3.47;3.20;;;7.60;99.90;;;;;;4843819;29;94273;-86
2021/04/12 10:55:27;;;;;;;2.45;2.25;;;7.60;99.90;;;;;;4840764;29;92137;-87
2021/04/12 10:58:28;;;;;;;2.65;2.30;;;7.70;99.90;;;;;;4819369;29;92068;-82
2021/04/12 11:01:11;;;;;;;3.30;3.10;;;7.90;99.90;;;;;;4838537;29;92328;-81
2021/04/12 11:03:54;;;;;;;3.35;3.00;;;7.90;99.90;;;;;;4820606;29;94103;-82
2021/04/12 11:06:44;;;;;;;3.70;3.40;;;7.20;99.90;;;;;;4836151;29;92271;-82
2021/04/12 11:09:26;;;;;;;3.70;3.40;;;7.00;99.90;;;;;;4841588;29;91312;-84
2021/04/12 11:12:10;;;;;;;3.45;3.20;;;6.50;99.90;;;;;;4823849;29;92786;-82
2021/04/12 11:15:04;;;;;;;3.38;3.17;;;6.70;99.90;;;;;;4837779;29;93046;-87
2021/04/12 11:17:39;;;;;;;3.95;3.08;;;6.90;99.90;;;;;;4839110;29;92957;-86
2021/04/12 11:20:11;;;;;;;4.15;3.85;;;6.90;99.90;;;;;;4844065;29;92082;-83
2021/04/12 11:22:37;;;;;;;3.25;3.05;;;;;;;;;;4840014;29;91509;-85
2021/04/12 11:25:38;;;;;;;2.47;2.20;;;6.90;99.90;;;;;;4840769;29;92734;-85
2021/04/12 11:28:09;;;;;;;3.33;2.60;;;6.90;99.90;;;;;;4830784;29;92394;-84
2021/04/12 11:30:56;;;;;;;2.70;2.28;;;6.80;99.90;;;;;;4843011;29;92016;-85
2021/04/12 11:33:34;;;;;;;3.15;2.95;;;6.60;99.90;;;;;;4833365;29;95600;-84
2021/04/12 11:36:14;;;;;;;3.67;3.47;;;7.10;99.90;;;;;;4841739;29;92052;-84
2021/04/12 11:38:49;;;;;;;4.00;3.70;;;7.20;99.90;;;;;;4843477;29;91724;-85
2021/04/12 11:41:26;;;;;;;3.22;2.33;;;6.80;99.90;;;;;;4846341;29;92321;-85
2021/04/12 11:43:55;;;;;;;3.35;3.15;;;6.70;99.90;;;;;;4826073;29;93113;-85
2021/04/12 11:46:21;;;;;;;3.25;3.05;;;;;;;;;;4838888;29;91641;-84
2021/04/12 11:49:12;;;;;;;2.67;2.10;;;6.50;99.90;;;;;;4840864;29;92197;-85
2021/04/12 11:51:57;;;;;;;;;;;6.50;99.90;;;;;;4834585;29;91582;-86
2021/04/12 11:54:42;;;;;;;2.40;2.20;;;6.60;99.90;;;;;;4819375;29;91356;-85
2021/04/12 11:57:34;;;;;;;3.20;2.10;;;6.60;99.90;;;;;;4855055;29;92649;-86
2021/04/12 12:00:05;;;;;;;3.80;3.50;;;6.50;99.90;;;;;;4831037;29;92611;-90
2021/04/12 12:02:53;;;;;;;2.40;2.20;;;6.40;99.90;;;;;;4843632;29;90926;-86
2021/04/12 12:05:29;;;;;;;2.45;2.25;;;6.40;99.90;;;;;;4848460;29;91992;-88
2021/04/12 12:07:59;;;;;;;2.25;2.05;;;6.50;99.90;;;;;;4863971;29;92244;-88
2021/04/12 12:10:27;;;;;;;4.22;2.20;;;6.40;99.90;;;;;;4864008;29;92976;-87
2021/04/12 12:13:09;;;;;;;2.15;1.75;;;6.30;99.90;;;;;;4864331;29;92176;-86
2021/04/12 12:15:37;;;;;;;;;;;6.30;99.90;;;;;;4849106;29;92149;-86
2021/04/12 12:18:06;;;;;;;2.15;1.95;;;6.30;99.90;;;;;;4839508;29;92698;-85
2021/04/12 12:20:44;;;;;;;2.20;2.00;;;6.30;99.90;;;;;;4855604;29;91678;-87
2021/04/12 12:23:33;;;;;;;2.47;2.10;;;6.40;99.90;;;;;;4856404;29;91926;-87
2021/04/12 12:26:02;;;;;;;2.70;2.03;;;6.30;99.90;;;;;;4847291;29;92152;-84
2021/04/12 12:28:44;;;;;;;2.72;2.30;;;6.30;99.90;;;;;;4845291;29;91785;-87
2021/04/12 12:31:33;;;;;;;4.10;3.70;;;6.40;99.90;;;;;;4846461;29;92009;-88
2021/04/12 12:33:59;;;;;;;4.05;3.75;;;;;;;;;;4847256;29;91765;-86
2021/04/12 12:36:43;;;;;;;3.40;3.15;;;6.20;99.90;;;;;;4847136;29;93207;-86
2021/04/12 12:39:09;;;;;;;3.38;3.08;;;;;;;;;;4823775;29;95139;-86
2021/04/12 12:41:42;;;;;;;2.60;2.20;;;6.10;99.90;;;;;;4830745;29;92048;-86
2021/04/12 12:44:11;;;;;;;2.38;2.13;;;6.10;99.90;;;;;;4852900;29;91975;-87
2021/04/12 12:46:40;;;;;;;2.80;2.60;;;6.00;99.90;;;;;;4843313;29;91671;-86
2021/04/12 12:49:12;;;;;;;3.78;3.50;;;6.20;99.90;;;;;;4846742;29;92594;-87
2021/04/12 12:51:49;;;;;;;2.90;2.30;;;5.80;99.90;;;;;;4852457;29;91765;-86
2021/04/12 12:54:26;;;;;;;2.63;2.17;;;5.70;99.90;;;;;;4845899;29;91272;-87
2021/04/12 12:57:12;;;;;;;2.05;1.85;;;5.70;99.90;;;;;;4857506;29;91831;-85
2021/04/12 12:59:40;;;;;;;1.77;1.67;;;5.80;99.90;;;;;;4838177;29;92022;-87
2021/04/12 13:02:35;;;;;;;1.98;1.75;;;5.80;99.90;;;;;;4833420;29;95628;-88
2021/04/12 13:05:24;;;;;;;3.35;3.15;;;5.80;99.90;;;;;;4825894;29;91750;-87
2021/04/12 13:08:27;;;;;;;3.60;3.30;;;5.70;99.90;;;;;;4848731;29;92102;-87
2021/04/12 13:10:54;;;;;;;7.53;4.53;;;5.70;99.90;;;;;;4841783;29;93224;-86
2021/04/12 13:13:33;;;;;;;3.78;2.70;;;5.60;99.90;;;;;;4852148;29;92042;-85
2021/04/12 13:16:18;;;;;;;4.53;2.65;;;5.70;99.90;;;;;;4845752;29;92424;-84
2021/04/12 13:18:58;;;;;;;4.18;3.72;;;5.70;99.90;;;;;;4843249;29;91983;-84
2021/04/12 13:21:28;;;;;;;3.03;2.27;;;5.70;99.90;;;;;;4845403;29;91594;-86
2021/04/12 13:24:23;;;;;;;3.35;2.80;;;5.70;99.90;;;;;;4837268;29;92008;-86
2021/04/12 13:27:02;;;;;;;4.30;2.80;;;5.70;99.90;;;;;;4848962;29;91607;-86
2021/04/12 13:29:53;;;;;;;4.32;2.90;;;5.60;99.90;;;;;;4852446;29;93073;-86
2021/04/12 13:32:26;;;;;;;3.38;2.47;;;5.50;99.90;;;;;;4850629;29;92800;-87
2021/04/12 13:35:06;;;;;;;2.65;2.30;;;5.50;99.90;;;;;;4859269;29;92552;-85
2021/04/12 13:38:19;;;;;;;4.63;4.00;;;5.50;99.90;;;;;;4847189;29;92022;-85
2021/04/12 13:40:56;;;;;;;4.45;4.05;;;5.50;99.90;;;;;;4843257;29;91908;-86
2021/04/12 13:43:29;;;;;;;3.38;2.70;;;5.40;99.90;;;;;;4859063;29;92119;-86
2021/04/12 13:45:56;;;;;;;5.95;4.82;;;5.30;99.90;;;;;;4824805;29;92696;-84
2021/04/12 13:48:28;;;;;;;4.70;4.10;;;5.10;99.90;;;;;;4826595;29;91848;-85
2021/04/12 13:51:08;;;;;;;6.45;3.25;;;5.30;99.90;;;;;;4839604;29;91997;-85
2021/04/12 13:53:57;;;;;;;5.32;4.10;;;5.50;99.90;;;;;;4828140;29;92728;-82
2021/04/12 13:56:44;;;;;;;4.00;3.17;;;5.30;99.90;;;;;;4840292;29;92561;-87
2021/04/12 13:59:22;;;;;;;4.25;3.88;;;5.90;99.90;;;;;;4832934;29;92520;-85
2021/04/12 14:02:21;;;;;;;4.07;3.10;;;5.20;99.90;;;;;;4847181;29;92136;-85
2021/04/12 14:04:53;;;;;;;3.83;2.83;;;5.20;99.90;;;;;;4844621;29;92027;-85
2021/04/12 14:07:37;;;;;;;4.10;3.47;;;5.20;99.90;;;;;;4848581;29;92305;-86
2021/04/12 14:10:35;;;;;;;3.90;3.50;;;5.20;99.90;;;;;;4850462;29;92365;-85
2021/04/12 14:13:17;;;;;;;4.07;3.35;;;5.20;99.90;;;;;;4829994;29;92137;-86
2021/04/12 14:15:53;;;;;;;5.07;4.57;;;5.00;99.90;;;;;;4848539;29;92942;-85
2021/04/12 14:18:32;;;;;;;5.28;4.78;;;5.30;99.90;;;;;;4842000;29;92159;-84
2021/04/12 14:21:28;;;;;;;4.95;4.53;;;5.50;99.90;;;;;;4851378;29;92031;-84
2021/04/12 14:24:00;;;;;;;5.60;4.20;;;5.00;99.90;;;;;;4846977;29;92949;-85
2021/04/12 14:26:36;;;;;;;5.18;4.78;;;5.40;99.90;;;;;;4847351;29;92360;-86
2021/04/12 14:29:38;;;;;;;6.85;3.92;;;5.00;99.90;;;;;;4861231;29;92069;-84
2021/04/12 14:32:12;;;;;;;5.57;4.07;;;5.00;99.90;;;;;;4802141;29;91715;-86
2021/04/12 14:34:59;;;;;;;3.38;2.78;;;5.10;99.90;;;;;;4859325;29;92211;-85
2021/04/12 14:37:28;;;;;;;4.03;3.25;;;5.00;99.90;;;;;;4855929;29;93400;-88
2021/04/12 14:40:10;;;;;;;3.88;3.10;;;5.00;99.90;;;;;;4857912;29;92057;-85
2021/04/12 14:42:37;;;;;;;;;;;5.00;99.90;;;;;;4855044;29;91215;-86
2021/04/12 14:45:07;;;;;;;3.63;2.80;;;5.10;99.90;;;;;;4848621;29;92092;-84
2021/04/12 14:47:42;;;;;;;5.00;4.50;;;5.20;99.90;;;;;;4852355;29;91931;-83
2021/04/12 14:50:16;;;;;;;3.72;3.03;;;5.10;99.90;;;;;;4852038;29;92327;-84
2021/04/12 14:52:46;;;;;;;3.60;2.97;;;5.20;99.90;;;;;;4853417;29;92102;-85
2021/04/12 14:55:18;;;;;;;4.60;4.20;;;5.00;99.90;;;;;;4869612;29;91571;-85
2021/04/12 14:57:45;;;;;;;3.80;3.40;;;5.40;99.90;;;;;;4854993;29;93429;-85
2021/04/12 15:00:17;;;;;;;3.08;2.58;;;5.40;99.90;;;;;;4852029;29;94672;-83
2021/04/12 15:02:48;;;;;;;4.55;3.38;;;5.50;99.90;;;;;;4856126;29;91557;-85
2021/04/12 15:05:40;;;;;;;7.03;4.57;;;5.80;99.90;;;;;;4851020;29;92230;-85
2021/04/12 15:08:38;;;;;;;3.55;3.08;;;5.60;99.90;;;;;;4856822;29;91250;-85
2021/04/12 15:11:38;;;;;;;4.45;3.50;;;5.70;99.90;;;;;;4819298;29;91921;-85
2021/04/12 15:14:12;;;;;;;4.28;3.33;;;5.80;99.90;;;;;;4829986;29;91867;-86
2021/04/12 15:16:56;;;;;;;3.55;3.22;;;5.90;99.90;;;;;;4847348;29;92934;-85
2021/04/12 15:19:36;;;;;;;3.10;2.80;;;6.00;99.90;;;;;;4853670;29;92755;-83
2021/04/12 15:22:15;;;;;;;4.10;3.22;;;6.20;99.90;;;;;;4854743;29;92161;-84
2021/04/12 15:24:47;;;;;;;5.53;3.17;;;6.20;99.90;;;;;;4846454;29;92206;-83
2021/04/12 15:27:23;;;;;;;4.03;2.85;;;6.30;99.90;;;;;;4847380;29;92181;-84
2021/04/12 15:30:14;;;;;;;3.47;2.70;;;6.40;99.90;;;;;;4846531;29;93346;-85
2021/04/12 15:32:46;;;;;;;5.10;3.13;;;6.50;99.90;;;;;;4847887;29;92017;-85
2021/04/12 15:35:15;;;;;;;4.07;3.28;;;6.50;99.90;;;;;;4865830;29;91291;-84
2021/04/12 15:37:54;;;;;;;4.25;3.10;;;6.60;99.90;;;;;;4846708;29;92003;-84
2021/04/12 15:40:20;;;;;;;2.83;2.60;;;6.60;99.90;;;;;;4828012;29;94395;-84
2021/04/12 15:43:03;;;;;;;3.55;2.83;;;6.60;99.90;;;;;;4848384;29;93026;-84
2021/04/12 15:45:43;;;;;;;4.15;3.00;;;6.60;99.90;;;;;;4850625;29;91525;-83
2021/04/12 15:48:25;;;;;;;3.15;2.85;;;6.60;99.90;;;;;;4833169;29;91504;-87
2021/04/12 15:51:20;;;;;;;3.35;3.05;;;6.60;99.90;;;;;;4833090;29;93767;-83
2021/04/12 15:54:00;;;;;;;5.60;3.40;;;6.60;99.90;;;;;;4808461;29;93049;-82
2021/04/12 15:56:29;;;;;;;4.88;4.38;;;6.50;99.90;;;;;;4832553;29;91863;-83
2021/04/12 15:59:01;;;;;;;5.07;4.60;;;6.60;99.90;;;;;;4824643;29;92016;-84
2021/04/12 16:02:07;;;;;;;4.85;3.28;;;6.50;99.90;;;;;;4830945;29;91026;-83
2021/04/12 16:04:45;;;;;;;5.57;3.45;;;6.40;99.90;;;;;;4831227;29;92043;-83
2021/04/12 16:07:28;;;;;;;6.28;3.92;;;6.10;99.90;;;;;;4838083;29;92550;-83
2021/04/12 16:09:56;;;;;;;6.75;5.03;;;6.10;99.90;;;;;;4832114;29;92892;-84
2021/04/12 16:12:23;;;;;;;6.07;5.20;;;5.90;99.90;;;;;;4831551;29;93135;-83
2021/04/12 16:15:04;;;;;;;5.07;4.35;;;5.80;99.90;;;;;;4830103;29;92300;-83
2021/04/12 16:17:30;;;;;;;;;;;5.70;99.90;;;;;;4831919;29;91634;-84
2021/04/12 16:20:08;;;;;;;13.85;8.18;;;5.80;99.90;;;;;;4831634;29;92190;-84
2021/04/12 16:22:38;;;;;;;20.95;9.98;;;5.50;99.90;;;;;;4829367;29;92138;-84
2021/04/12 16:25:23;;;;;;;64.97;22.67;;;5.50;99.90;;;;;;4829118;29;92218;-83
2021/04/12 16:28:07;;;;;;;8.40;5.05;;;5.40;99.90;;;;;;4829330;29;91167;-83
2021/04/12 16:30:43;;;;;;;11.43;5.85;;;5.40;99.90;;;;;;4830994;29;91993;-83
2021/04/12 16:33:21;;;;;;;18.70;8.98;;;5.40;99.90;;;;;;4829618;29;92633;-83
2021/04/12 16:36:20;;;;;;;8.52;5.10;;;5.40;99.90;;;;;;4828716;29;93122;-84
2021/04/12 16:39:05;;;;;;;7.60;5.55;;;5.40;99.90;;;;;;4820686;29;92102;-84
2021/04/12 16:41:39;;;;;;;6.65;4.53;;;5.50;99.90;;;;;;4829773;29;91476;-83
2021/04/12 16:44:10;;;;;;;5.90;3.92;;;5.30;99.90;;;;;;4834743;29;92162;-84
2021/04/12 16:46:57;;;;;;;4.18;3.25;;;5.40;99.90;;;;;;4836732;29;92238;-83
2021/04/12 16:49:27;;;;;;;4.68;3.80;;;5.20;99.90;;;;;;4850608;29;92385;-84
2021/04/12 16:52:30;;;;;;;4.67;3.53;;;5.10;99.90;;;;;;4853886;29;91921;-83
2021/04/12 16:55:20;;;;;;;5.60;4.90;;;5.50;99.90;;;;;;4803418;29;91529;-83
2021/04/12 16:57:46;;;;;;;6.70;5.20;;;;;;;;;;4848781;29;91990;-86
2021/04/12 17:00:21;;;;;;;6.78;4.60;;;5.30;99.90;;;;;;4849106;29;92370;-84
2021/04/12 17:03:17;;;;;;;7.07;5.95;;;5.30;99.90;;;;;;4852301;29;92908;-83
2021/04/12 17:05:51;;;;;;;6.32;5.05;;;5.30;99.90;;;;;;4850473;29;92358;-84
2021/04/12 17:08:33;;;;;;;7.03;5.70;;;5.40;99.90;;;;;;4849751;29;95080;-85
2021/04/12 17:11:00;;;;;;;9.38;5.90;;;5.40;99.90;;;;;;4848561;29;91660;-87
2021/04/12 17:13:52;;;;;;;15.73;8.40;;;5.30;99.90;;;;;;4853309;29;92473;-89
2021/04/12 17:16:20;;;;;;;7.18;4.40;;;5.20;99.90;;;;;;4839362;29;94927;-89
2021/04/12 17:19:00;;;;;;;6.25;4.35;;;5.10;99.90;;;;;;4850871;29;92430;-87
2021/04/12 17:21:40;;;;;;;8.15;5.15;;;5.20;99.90;;;;;;4841515;29;91200;-87